createdAt,value
2022-12-27T00:01:30.817Z,6.10
2022-12-27T00:06:33.418Z,5.80
2022-12-27T00:11:35.884Z,5.28
2022-12-27T00:16:38.939Z,4.53
2022-12-27T00:21:41.435Z,4.35
2022-12-27T00:26:43.958Z,6.85
2022-12-27T00:31:46.462Z,6.20
2022-12-27T00:36:49.016Z,6.60
2022-12-27T00:41:51.475Z,6.03
2022-12-27T00:46:53.915Z,4.75
2022-12-27T00:51:56.441Z,3.58
2022-12-27T00:56:58.931Z,4.50
2022-12-27T01:02:01.535Z,4.43
2022-12-27T01:07:04.685Z,5.43
2022-12-27T01:12:07.183Z,4.03
2022-12-27T01:17:10.614Z,3.40
2022-12-27T01:22:13.147Z,3.13
2022-12-27T01:32:35.780Z,3.63
2022-12-27T01:37:38.210Z,4.90
2022-12-27T01:42:52.860Z,8.55
2022-12-27T01:48:24.799Z,8.93
2022-12-27T01:53:39.793Z,10.35
2022-12-27T01:58:48.276Z,8.40
2022-12-27T02:04:06.687Z,5.57
2022-12-27T02:09:43.439Z,3.75
2022-12-27T02:14:49.441Z,4.60
2022-12-27T02:20:01.910Z,4.07
2022-12-27T02:25:50.800Z,4.72
2022-12-27T02:31:15.997Z,5.32
2022-12-27T02:36:32.152Z,6.07
2022-12-27T02:41:54.140Z,6.38
2022-12-27T02:47:16.314Z,7.80
2022-12-27T02:53:00.345Z,8.13
2022-12-27T02:58:32.374Z,6.95
2022-12-27T03:03:43.996Z,4.75
2022-12-27T03:09:14.144Z,3.67
2022-12-27T03:14:43.654Z,2.40
2022-12-27T03:20:12.228Z,2.50
2022-12-27T03:25:29.602Z,2.30
2022-12-27T03:30:52.655Z,2.33
2022-12-27T03:36:16.362Z,2.60
2022-12-27T03:41:54.141Z,2.70
2022-12-27T03:47:03.700Z,3.28
2022-12-27T03:52:24.281Z,2.97
2022-12-27T03:57:28.277Z,2.75
2022-12-27T04:02:30.806Z,2.42
2022-12-27T04:07:33.445Z,2.50
2022-12-27T04:12:54.382Z,2.47
2022-12-27T04:18:15.368Z,2.15
2022-12-27T04:23:36.677Z,2.08
2022-12-27T04:28:57.468Z,2.95
2022-12-27T04:34:18.959Z,1.92
2022-12-27T04:39:21.384Z,2.75
2022-12-27T04:44:42.582Z,2.33
2022-12-27T04:50:03.379Z,2.75
2022-12-27T04:55:12.547Z,2.88
2022-12-27T05:05:38.401Z,4.30
2022-12-27T05:10:59.722Z,6.38
2022-12-27T05:16:02.295Z,9.02
2022-12-27T05:21:06.063Z,11.25
2022-12-27T05:26:08.551Z,12.45
2022-12-27T05:31:11.017Z,8.60
2022-12-27T05:36:13.754Z,3.58
2022-12-27T05:41:16.465Z,2.40
2022-12-27T05:46:21.609Z,3.65
2022-12-27T05:51:24.081Z,3.75
2022-12-27T05:56:26.577Z,3.50
2022-12-27T06:01:29.342Z,3.08
2022-12-27T06:06:31.888Z,3.63
2022-12-27T06:11:34.351Z,3.40
2022-12-27T06:16:36.853Z,3.08
2022-12-27T06:21:39.267Z,3.15
2022-12-27T06:26:43.127Z,4.20
2022-12-27T06:31:45.663Z,4.22
2022-12-27T06:36:51.120Z,4.03
2022-12-27T06:41:55.595Z,5.53
2022-12-27T06:46:58.092Z,5.45
2022-12-27T06:52:00.764Z,5.97
2022-12-27T06:57:03.197Z,7.78
2022-12-27T07:02:05.958Z,7.30
2022-12-27T07:07:12.118Z,8.35
2022-12-27T07:12:18.029Z,8.32
2022-12-27T07:17:20.541Z,8.82
2022-12-27T07:22:22.963Z,10.60
2022-12-27T07:27:25.795Z,10.40
2022-12-27T07:32:28.238Z,7.05
2022-12-27T07:37:30.747Z,8.35
2022-12-27T07:42:33.266Z,7.95
2022-12-27T07:47:35.676Z,7.55
2022-12-27T07:52:38.132Z,8.52
2022-12-27T07:57:40.595Z,8.00
2022-12-27T08:02:43.790Z,8.68
2022-12-27T08:07:47.875Z,6.50
2022-12-27T08:12:50.298Z,6.93
2022-12-27T08:17:52.665Z,5.93
2022-12-27T08:28:16.776Z,5.63
2022-12-27T08:33:19.614Z,4.90
2022-12-27T08:38:22.291Z,4.20
2022-12-27T08:48:44.993Z,4.93
2022-12-27T08:53:50.269Z,4.63
2022-12-27T08:58:52.779Z,4.75
2022-12-27T09:03:55.654Z,8.80
2022-12-27T09:09:00.022Z,8.60
2022-12-27T09:14:04.677Z,6.72
2022-12-27T09:19:07.203Z,5.00
2022-12-27T09:24:12.711Z,5.43
2022-12-27T09:39:54.613Z,3.47
2022-12-27T09:45:16.172Z,6.15
2022-12-27T09:50:26.692Z,5.00
2022-12-27T09:55:43.576Z,4.68
2022-12-27T10:00:46.597Z,4.28
2022-12-27T10:05:56.462Z,4.95
2022-12-27T10:11:08.742Z,5.68
2022-12-27T10:16:26.196Z,5.43
2022-12-27T10:26:51.426Z,3.90
2022-12-27T10:31:54.333Z,3.75
2022-12-27T10:36:56.899Z,5.03
2022-12-27T10:42:14.739Z,4.35
2022-12-27T10:47:17.461Z,5.40
2022-12-27T10:52:24.293Z,4.97
2022-12-27T10:57:34.324Z,5.20
2022-12-27T11:02:49.798Z,6.43
2022-12-27T11:07:52.689Z,6.78
2022-12-27T11:12:56.757Z,6.75
2022-12-27T11:18:04.970Z,6.15
2022-12-27T11:23:10.592Z,6.57
2022-12-27T11:28:24.945Z,5.82
2022-12-27T11:33:47.569Z,4.88
2022-12-27T11:38:50.832Z,4.55
2022-12-27T11:43:59.180Z,4.70
2022-12-27T11:55:04.139Z,7.82
2022-12-27T12:00:33.660Z,6.25
2022-12-27T12:06:00.845Z,5.60
2022-12-27T12:11:24.263Z,5.60
2022-12-27T12:16:36.326Z,6.05
2022-12-27T12:22:06.341Z,6.25
2022-12-27T12:27:14.445Z,8.38
2022-12-27T12:32:38.681Z,7.65
2022-12-27T12:38:12.478Z,7.25
2022-12-27T12:43:36.181Z,7.10
2022-12-27T12:49:10.638Z,6.05
2022-12-27T12:54:40.125Z,6.25
2022-12-27T13:00:05.264Z,4.97
2022-12-27T13:05:41.660Z,4.50
2022-12-27T13:10:55.937Z,4.55
2022-12-27T13:16:42.696Z,5.93
2022-12-27T13:22:04.113Z,4.35
2022-12-27T13:27:48.118Z,5.70
2022-12-27T13:33:14.769Z,5.95
2022-12-27T13:38:19.970Z,4.55
2022-12-27T13:44:00.790Z,4.25
2022-12-27T13:49:40.726Z,4.85
2022-12-27T13:54:46.468Z,5.03
2022-12-27T14:00:02.832Z,5.68
2022-12-27T14:10:48.477Z,6.97
2022-12-27T14:15:53.674Z,5.55
2022-12-27T14:21:24.673Z,5.32
2022-12-27T14:27:04.918Z,4.35
2022-12-27T14:32:35.368Z,3.55
2022-12-27T14:37:58.493Z,3.90
2022-12-27T14:43:26.092Z,3.25
2022-12-27T14:54:03.478Z,4.43
2022-12-27T14:59:26.775Z,5.70
2022-12-27T15:04:50.429Z,3.28
2022-12-27T15:10:07.977Z,3.40
2022-12-27T15:15:35.482Z,3.15
2022-12-27T15:21:02.088Z,3.35
2022-12-27T15:26:27.232Z,2.20
2022-12-27T15:31:42.380Z,3.05
2022-12-27T15:36:47.759Z,2.80
2022-12-27T15:41:59.870Z,2.45
2022-12-27T15:47:26.201Z,5.03
2022-12-27T15:53:04.443Z,5.63
2022-12-27T16:03:37.955Z,2.83
2022-12-27T16:08:41.226Z,2.47
2022-12-27T16:14:36.689Z,2.50
2022-12-27T16:19:44.916Z,3.50
2022-12-27T16:24:47.450Z,4.40
2022-12-27T16:29:49.950Z,3.28
2022-12-27T16:34:55.687Z,3.55
2022-12-27T16:40:16.641Z,3.20
2022-12-27T16:45:47.685Z,3.80
2022-12-27T16:51:34.037Z,3.08
2022-12-27T16:56:39.313Z,2.50
2022-12-27T17:01:44.786Z,2.55
2022-12-27T17:06:54.895Z,2.42
2022-12-27T17:11:57.302Z,2.65
2022-12-27T17:17:04.518Z,2.22
2022-12-27T17:22:12.518Z,4.00
2022-12-27T17:27:52.378Z,1.92
2022-12-27T17:33:14.172Z,2.55
2022-12-27T17:38:34.635Z,2.85
2022-12-27T17:44:04.863Z,2.22
2022-12-27T17:49:11.122Z,2.38
2022-12-27T17:54:44.763Z,2.28
2022-12-27T17:59:50.968Z,2.45
2022-12-27T18:04:56.398Z,1.92
2022-12-27T18:10:04.326Z,2.20
2022-12-27T18:15:15.787Z,2.40
2022-12-27T18:20:27.308Z,2.20
2022-12-27T18:25:45.069Z,2.58
2022-12-27T18:30:53.792Z,2.88
2022-12-27T18:35:57.146Z,2.70
2022-12-27T18:41:06.358Z,2.70
2022-12-27T18:46:16.209Z,2.38
2022-12-27T18:51:19.165Z,2.85
2022-12-27T19:01:47.460Z,2.50
2022-12-27T19:07:12.184Z,1.90
2022-12-27T19:12:31.439Z,2.15
2022-12-27T19:17:38.840Z,2.28
2022-12-27T19:22:52.533Z,2.17
2022-12-27T19:28:10.042Z,2.63
2022-12-27T19:33:23.294Z,2.00
2022-12-27T19:38:29.015Z,1.88
2022-12-27T19:43:37.643Z,2.17
2022-12-27T19:48:41.229Z,2.17
2022-12-27T19:53:49.953Z,2.08
2022-12-27T19:58:54.907Z,2.78
2022-12-27T20:03:57.501Z,2.53
2022-12-27T20:09:00.042Z,2.65
2022-12-27T20:14:03.989Z,2.40
2022-12-27T20:19:06.771Z,3.08
2022-12-27T20:24:13.225Z,3.35
2022-12-27T20:29:15.803Z,3.10
2022-12-27T20:34:18.458Z,3.20
2022-12-27T20:39:21.552Z,2.95
2022-12-27T20:44:24.132Z,2.83
2022-12-27T20:49:26.583Z,2.85
2022-12-27T20:54:29.158Z,2.97
2022-12-27T20:59:31.694Z,3.30
2022-12-27T21:04:34.149Z,3.35
2022-12-27T21:09:37.906Z,3.05
2022-12-27T21:14:40.405Z,3.58
2022-12-27T21:19:43.251Z,2.78
2022-12-27T21:24:46.006Z,2.72
2022-12-27T21:29:48.417Z,3.15
2022-12-27T21:34:50.882Z,2.72
2022-12-27T21:39:53.378Z,2.55
2022-12-27T21:44:55.846Z,2.47
2022-12-27T21:49:58.348Z,2.90
2022-12-27T21:55:00.837Z,2.63
2022-12-27T22:00:04.851Z,2.78
2022-12-27T22:05:07.693Z,3.00
2022-12-27T22:15:30.286Z,2.83
2022-12-27T22:20:32.731Z,2.80
2022-12-27T22:25:35.261Z,2.90
2022-12-27T22:30:41.372Z,3.10
2022-12-27T22:35:44.767Z,2.60
2022-12-27T22:40:47.355Z,2.38
2022-12-27T22:45:53.800Z,2.90
2022-12-27T22:50:56.633Z,3.17
2022-12-27T22:55:59.129Z,3.22
2022-12-27T23:01:01.588Z,2.95
2022-12-27T23:06:04.197Z,3.55
2022-12-27T23:11:09.597Z,3.38
2022-12-27T23:16:12.567Z,3.42
2022-12-27T23:21:20.868Z,3.05
2022-12-27T23:26:27.358Z,3.97
2022-12-27T23:31:30.403Z,4.15
2022-12-27T23:36:33.527Z,3.58
2022-12-27T23:41:38.415Z,4.20
2022-12-27T23:46:40.857Z,4.28
2022-12-27T23:51:43.856Z,3.63
2022-12-27T23:56:46.321Z,4.30
